createdAt,value
2022-11-06T00:08:47.476Z,10
2022-11-06T00:18:51.870Z,17
2022-11-06T00:28:57.852Z,12
2022-11-06T00:39:02.151Z,6
2022-11-06T00:49:07.779Z,5
2022-11-06T00:59:12.116Z,7
2022-11-06T01:09:17.333Z,6
2022-11-06T01:19:20.942Z,6
2022-11-06T01:29:33.739Z,6
2022-11-06T01:39:40.018Z,7
2022-11-06T01:49:47.408Z,5
2022-11-06T01:59:53.657Z,6
2022-11-06T02:09:57.607Z,6
2022-11-06T02:20:05.546Z,5
2022-11-06T02:30:10.307Z,6
2022-11-06T02:40:16.582Z,6
2022-11-06T02:50:21.735Z,4
2022-11-06T03:00:27.136Z,6
2022-11-06T03:10:32.401Z,6
2022-11-06T03:20:37.784Z,5
2022-11-06T03:30:47.293Z,5
2022-11-06T03:40:47.230Z,5
2022-11-06T03:50:53.512Z,7
2022-11-06T04:00:59.342Z,5
2022-11-06T04:11:05.615Z,3
2022-11-06T04:21:10.160Z,4
2022-11-06T04:31:15.506Z,7
2022-11-06T04:41:21.140Z,6
2022-11-06T04:51:27.157Z,6
2022-11-06T05:01:32.580Z,4
2022-11-06T05:11:38.172Z,9
2022-11-06T05:21:44.737Z,15
2022-11-06T05:31:49.776Z,18
2022-11-06T05:41:55.894Z,19
2022-11-06T05:52:01.228Z,18
2022-11-06T06:02:07.541Z,13
2022-11-06T06:12:10.890Z,10
2022-11-06T06:22:16.612Z,9
2022-11-06T06:32:21.255Z,8
2022-11-06T06:42:31.209Z,6
2022-11-06T06:52:34.601Z,8
2022-11-06T07:02:41.543Z,6
2022-11-06T07:12:46.361Z,4
2022-11-06T07:23:02.399Z,5
2022-11-06T07:32:56.664Z,5
2022-11-06T07:43:01.180Z,8
2022-11-06T07:53:05.291Z,6
2022-11-06T08:03:13.624Z,4
2022-11-06T08:13:19.927Z,7
2022-11-06T08:23:27.626Z,11
2022-11-06T08:33:33.429Z,10
2022-11-06T08:43:41.173Z,6
2022-11-06T08:53:48.534Z,4
2022-11-06T09:03:53.441Z,3
2022-11-06T09:13:56.752Z,4
2022-11-06T09:24:04.399Z,6
2022-11-06T09:34:10.110Z,5
2022-11-06T09:44:49.454Z,4
2022-11-06T09:54:44.342Z,3
2022-11-06T10:04:47.231Z,3
2022-11-06T10:14:56.207Z,4
2022-11-06T10:25:02.096Z,10
2022-11-06T10:35:09.298Z,8
2022-11-06T10:45:14.878Z,4
2022-11-06T10:55:19.728Z,4
2022-11-06T11:05:28.584Z,3
2022-11-06T11:15:29.493Z,5
2022-11-06T11:25:37.192Z,3
2022-11-06T11:35:44.549Z,4
2022-11-06T11:45:49.907Z,3
2022-11-06T11:55:54.926Z,3
2022-11-06T12:06:11.384Z,3
2022-11-06T12:16:16.190Z,3
2022-11-06T12:26:21.657Z,5
2022-11-06T12:36:26.717Z,7
2022-11-06T12:46:33.975Z,5
2022-11-06T12:56:39.300Z,3
2022-11-06T13:06:54.424Z,2
2022-11-06T13:16:53.094Z,4
2022-11-06T13:26:58.261Z,3
2022-11-06T13:37:04.530Z,3
2022-11-06T13:47:10.862Z,4
2022-11-06T13:57:15.557Z,3
2022-11-06T14:07:23.685Z,4
2022-11-06T14:17:31.491Z,4
2022-11-06T14:27:37.268Z,4
2022-11-06T14:37:42.480Z,3
2022-11-06T14:47:49.144Z,5
2022-11-06T14:57:54.812Z,4
2022-11-06T15:08:35.963Z,7
2022-11-06T15:18:28.231Z,5
2022-11-06T15:28:33.894Z,8
2022-11-06T15:38:40.135Z,11
2022-11-06T15:48:45.363Z,6
2022-11-06T15:58:49.663Z,10
2022-11-06T16:08:55.228Z,8
2022-11-06T16:19:00.946Z,11
2022-11-06T16:29:06.251Z,15
2022-11-06T16:39:47.590Z,7
2022-11-06T16:49:42.571Z,5
2022-11-06T16:59:48.425Z,15
2022-11-06T17:09:57.427Z,13
2022-11-06T17:20:00.383Z,10
2022-11-06T17:30:08.837Z,11
2022-11-06T17:40:10.034Z,13
2022-11-06T17:50:18.040Z,14
2022-11-06T18:00:22.259Z,9
2022-11-06T18:10:30.764Z,9
2022-11-06T18:20:35.751Z,7
2022-11-06T18:30:39.060Z,12
2022-11-06T18:40:47.363Z,10
2022-11-06T18:50:49.008Z,9
2022-11-06T19:01:01.617Z,8
2022-11-06T19:11:00.781Z,13
2022-11-06T19:21:08.307Z,13
2022-11-06T19:31:16.512Z,4
2022-11-06T19:41:21.641Z,5
2022-11-06T19:51:46.368Z,6
2022-11-06T20:01:45.525Z,4
2022-11-06T20:11:52.785Z,7
2022-11-06T20:21:59.370Z,5
2022-11-06T20:32:05.701Z,5
2022-11-06T20:42:12.177Z,5
2022-11-06T20:52:55.606Z,6
2022-11-06T21:02:49.876Z,4
2022-11-06T21:12:54.224Z,3
2022-11-06T21:22:58.908Z,4
2022-11-06T21:33:04.509Z,5
2022-11-06T21:43:08.877Z,3
2022-11-06T21:53:16.797Z,3
2022-11-06T22:03:19.056Z,3
2022-11-06T22:13:23.866Z,4
2022-11-06T22:23:30.382Z,3
2022-11-06T22:33:37.555Z,4
2022-11-06T22:43:45.457Z,5
2022-11-06T22:53:57.291Z,4
2022-11-06T23:03:58.178Z,4
2022-11-06T23:14:07.561Z,3
2022-11-06T23:24:07.509Z,5
2022-11-06T23:34:15.333Z,6
2022-11-06T23:44:20.051Z,5
2022-11-06T23:54:25.878Z,4
